sensor_id;sensor_type;location;lat;lon;timestamp;pressure;altitude;pressure_sealevel;temperature;humidity
38616;BME280;24370;51.986;4.666;2024-02-26T00:02:07;99967.59;;;16.85;39.54
38616;BME280;24370;51.986;4.666;2024-02-26T00:04:33;99980.53;;;15.97;40.82
38616;BME280;24370;51.986;4.666;2024-02-26T00:06:58;99966.13;;;16.42;39.98
38616;BME280;24370;51.986;4.666;2024-02-26T00:09:23;99966.72;;;16.67;39.21
38616;BME280;24370;51.986;4.666;2024-02-26T00:11:49;99971.41;;;16.42;39.91
38616;BME280;24370;51.986;4.666;2024-02-26T00:14:14;99974.72;;;16.65;39.06
38616;BME280;24370;51.986;4.666;2024-02-26T00:16:40;99978.66;;;16.37;39.76
38616;BME280;24370;51.986;4.666;2024-02-26T00:19:06;99993.72;;;15.37;41.97
38616;BME280;24370;51.986;4.666;2024-02-26T00:21:32;99979.97;;;16.09;40.58
38616;BME280;24370;51.986;4.666;2024-02-26T00:23:57;99984.53;;;16.25;40.02
38616;BME280;24370;51.986;4.666;2024-02-26T00:26:22;99984.53;;;15.87;41.06
38616;BME280;24370;51.986;4.666;2024-02-26T00:28:48;99982.13;;;16.01;40.33
38616;BME280;24370;51.986;4.666;2024-02-26T00:31:13;99982.84;;;16.24;40.44
38616;BME280;24370;51.986;4.666;2024-02-26T00:33:39;99982.50;;;16.86;39.12
38616;BME280;24370;51.986;4.666;2024-02-26T00:36:04;99981.22;;;16.94;38.39
38616;BME280;24370;51.986;4.666;2024-02-26T00:38:30;99992.84;;;16.54;39.44
38616;BME280;24370;51.986;4.666;2024-02-26T00:40:55;99986.25;;;16.26;39.60
38616;BME280;24370;51.986;4.666;2024-02-26T00:43:21;99981.38;;;16.17;39.78
38616;BME280;24370;51.986;4.666;2024-02-26T00:45:46;99992.78;;;15.38;41.27
38616;BME280;24370;51.986;4.666;2024-02-26T00:48:12;99980.63;;;16.51;39.86
38616;BME280;24370;51.986;4.666;2024-02-26T00:50:39;99978.00;;;16.15;39.66
38616;BME280;24370;51.986;4.666;2024-02-26T00:53:04;99977.84;;;16.73;38.81
38616;BME280;24370;51.986;4.666;2024-02-26T00:55:29;99977.19;;;16.68;38.98
38616;BME280;24370;51.986;4.666;2024-02-26T00:57:55;99976.13;;;16.17;39.84
38616;BME280;24370;51.986;4.666;2024-02-26T01:00:20;99975.56;;;17.02;37.88
38616;BME280;24370;51.986;4.666;2024-02-26T01:02:46;99978.75;;;16.36;39.71
38616;BME280;24370;51.986;4.666;2024-02-26T01:05:12;99978.25;;;16.27;40.24
38616;BME280;24370;51.986;4.666;2024-02-26T01:07:38;99975.09;;;16.57;38.93
38616;BME280;24370;51.986;4.666;2024-02-26T01:10:04;99974.72;;;16.09;40.32
38616;BME280;24370;51.986;4.666;2024-02-26T01:12:34;99978.38;;;16.43;39.61
38616;BME280;24370;51.986;4.666;2024-02-26T01:15:02;99976.44;;;16.84;38.83
38616;BME280;24370;51.986;4.666;2024-02-26T01:17:30;99997.78;;;16.04;40.09
38616;BME280;24370;51.986;4.666;2024-02-26T01:19:56;99982.03;;;16.22;39.95
38616;BME280;24370;51.986;4.666;2024-02-26T01:22:21;99985.66;;;16.00;40.27
38616;BME280;24370;51.986;4.666;2024-02-26T01:24:47;99994.22;;;16.05;40.17
38616;BME280;24370;51.986;4.666;2024-02-26T01:27:12;99989.22;;;16.18;40.34
38616;BME280;24370;51.986;4.666;2024-02-26T01:29:40;99988.78;;;15.29;41.62
38616;BME280;24370;51.986;4.666;2024-02-26T01:32:05;99976.00;;;16.20;39.74
38616;BME280;24370;51.986;4.666;2024-02-26T01:34:31;99976.97;;;16.36;40.52
38616;BME280;24370;51.986;4.666;2024-02-26T01:36:56;99968.13;;;16.37;39.47
38616;BME280;24370;51.986;4.666;2024-02-26T01:39:22;99972.41;;;16.40;39.69
38616;BME280;24370;51.986;4.666;2024-02-26T01:41:47;99971.22;;;16.28;40.13
38616;BME280;24370;51.986;4.666;2024-02-26T01:44:13;99980.75;;;16.31;39.83
38616;BME280;24370;51.986;4.666;2024-02-26T01:46:38;99981.53;;;16.14;40.26
38616;BME280;24370;51.986;4.666;2024-02-26T01:49:04;99987.47;;;16.19;40.48
38616;BME280;24370;51.986;4.666;2024-02-26T01:51:30;99978.13;;;16.11;40.09
38616;BME280;24370;51.986;4.666;2024-02-26T01:53:58;99990.06;;;16.57;39.29
38616;BME280;24370;51.986;4.666;2024-02-26T01:56:24;99994.34;;;17.13;38.52
38616;BME280;24370;51.986;4.666;2024-02-26T01:58:55;99998.91;;;17.78;37.32
38616;BME280;24370;51.986;4.666;2024-02-26T02:01:21;100008.47;;;17.12;38.02
38616;BME280;24370;51.986;4.666;2024-02-26T02:03:47;100010.88;;;16.44;39.28
38616;BME280;24370;51.986;4.666;2024-02-26T02:06:13;100015.88;;;16.31;39.89
38616;BME280;24370;51.986;4.666;2024-02-26T02:08:39;100010.31;;;17.45;37.65
38616;BME280;24370;51.986;4.666;2024-02-26T02:11:07;100016.44;;;16.57;39.25
38616;BME280;24370;51.986;4.666;2024-02-26T02:13:33;100016.13;;;16.63;38.98
38616;BME280;24370;51.986;4.666;2024-02-26T02:15:58;100017.31;;;17.11;38.48
38616;BME280;24370;51.986;4.666;2024-02-26T02:18:24;100021.59;;;16.22;39.33
38616;BME280;24370;51.986;4.666;2024-02-26T02:20:49;100022.72;;;15.97;40.02
38616;BME280;24370;51.986;4.666;2024-02-26T02:23:14;100018.25;;;16.93;38.50
38616;BME280;24370;51.986;4.666;2024-02-26T02:25:40;100030.75;;;15.73;40.21
38616;BME280;24370;51.986;4.666;2024-02-26T02:28:05;100016.28;;;16.60;38.73
38616;BME280;24370;51.986;4.666;2024-02-26T02:30:31;100024.84;;;15.89;40.22
38616;BME280;24370;51.986;4.666;2024-02-26T02:32:58;100031.41;;;16.37;39.51
38616;BME280;24370;51.986;4.666;2024-02-26T02:35:24;100029.84;;;16.52;38.87
38616;BME280;24370;51.986;4.666;2024-02-26T02:37:52;100031.47;;;16.55;39.36
38616;BME280;24370;51.986;4.666;2024-02-26T02:40:17;100036.13;;;17.23;37.78
38616;BME280;24370;51.986;4.666;2024-02-26T02:42:42;100047.53;;;16.31;39.42
38616;BME280;24370;51.986;4.666;2024-02-26T02:45:08;100048.63;;;16.63;39.02
38616;BME280;24370;51.986;4.666;2024-02-26T02:47:36;100059.88;;;16.86;38.34
38616;BME280;24370;51.986;4.666;2024-02-26T02:50:03;100061.28;;;17.12;38.23
38616;BME280;24370;51.986;4.666;2024-02-26T02:52:31;100072.47;;;16.24;39.25
38616;BME280;24370;51.986;4.666;2024-02-26T02:54:56;100077.50;;;16.09;39.86
38616;BME280;24370;51.986;4.666;2024-02-26T02:57:22;100062.88;;;15.20;41.10
38616;BME280;24370;51.986;4.666;2024-02-26T02:59:47;100066.75;;;16.33;39.90
38616;BME280;24370;51.986;4.666;2024-02-26T03:02:13;100068.88;;;16.06;39.75
38616;BME280;24370;51.986;4.666;2024-02-26T03:04:38;100067.78;;;15.07;41.87
38616;BME280;24370;51.986;4.666;2024-02-26T03:07:04;100072.25;;;15.48;41.14
38616;BME280;24370;51.986;4.666;2024-02-26T03:09:32;100079.56;;;16.03;39.89
38616;BME280;24370;51.986;4.666;2024-02-26T03:11:57;100084.16;;;16.56;38.83
38616;BME280;24370;51.986;4.666;2024-02-26T03:14:23;100084.81;;;16.42;39.11
38616;BME280;24370;51.986;4.666;2024-02-26T03:16:48;100084.50;;;15.49;40.72
38616;BME280;24370;51.986;4.666;2024-02-26T03:19:15;100084.16;;;16.56;38.88
38616;BME280;24370;51.986;4.666;2024-02-26T03:21:41;100087.53;;;16.01;39.71
38616;BME280;24370;51.986;4.666;2024-02-26T03:24:07;100086.50;;;15.85;40.20
38616;BME280;24370;51.986;4.666;2024-02-26T03:26:35;100096.13;;;15.86;40.48
38616;BME280;24370;51.986;4.666;2024-02-26T03:29:01;100091.81;;;16.62;39.43
38616;BME280;24370;51.986;4.666;2024-02-26T03:31:27;100093.72;;;16.59;38.57
38616;BME280;24370;51.986;4.666;2024-02-26T03:33:53;100098.91;;;15.83;40.05
38616;BME280;24370;51.986;4.666;2024-02-26T03:36:18;100095.25;;;15.85;40.32
38616;BME280;24370;51.986;4.666;2024-02-26T03:38:43;100095.06;;;15.90;40.33
38616;BME280;24370;51.986;4.666;2024-02-26T03:41:09;100093.31;;;15.48;40.82
38616;BME280;24370;51.986;4.666;2024-02-26T03:43:34;100097.91;;;15.42;41.27
38616;BME280;24370;51.986;4.666;2024-02-26T03:46:00;100103.75;;;15.92;40.35
38616;BME280;24370;51.986;4.666;2024-02-26T03:48:25;100102.47;;;15.82;40.54
38616;BME280;24370;51.986;4.666;2024-02-26T03:50:51;100091.91;;;15.82;40.39
38616;BME280;24370;51.986;4.666;2024-02-26T03:53:16;100100.84;;;16.38;39.22
38616;BME280;24370;51.986;4.666;2024-02-26T03:55:41;100102.06;;;15.91;40.26
38616;BME280;24370;51.986;4.666;2024-02-26T03:58:07;100105.00;;;15.20;41.91
38616;BME280;24370;51.986;4.666;2024-02-26T04:00:33;100105.41;;;16.34;39.42
38616;BME280;24370;51.986;4.666;2024-02-26T04:02:58;100097.34;;;15.56;40.48
38616;BME280;24370;51.986;4.666;2024-02-26T04:05:24;100102.13;;;16.67;38.76
38616;BME280;24370;51.986;4.666;2024-02-26T04:07:49;100101.56;;;16.02;40.17
38616;BME280;24370;51.986;4.666;2024-02-26T04:10:14;100108.13;;;16.71;38.72
38616;BME280;24370;51.986;4.666;2024-02-26T04:12:41;100097.34;;;17.31;37.48
38616;BME280;24370;51.986;4.666;2024-02-26T04:15:09;100107.72;;;16.61;38.81
38616;BME280;24370;51.986;4.666;2024-02-26T04:17:36;100110.88;;;15.90;40.13
38616;BME280;24370;51.986;4.666;2024-02-26T04:20:02;100110.16;;;16.26;39.51
38616;BME280;24370;51.986;4.666;2024-02-26T04:22:32;100111.59;;;16.33;39.66
38616;BME280;24370;51.986;4.666;2024-02-26T04:24:57;100121.66;;;16.63;38.70
38616;BME280;24370;51.986;4.666;2024-02-26T04:27:23;100120.34;;;16.15;39.67
38616;BME280;24370;51.986;4.666;2024-02-26T04:29:48;100115.38;;;15.45;40.95
38616;BME280;24370;51.986;4.666;2024-02-26T04:32:13;100120.41;;;16.53;39.27
38616;BME280;24370;51.986;4.666;2024-02-26T04:34:39;100113.94;;;15.16;41.82
38616;BME280;24370;51.986;4.666;2024-02-26T04:37:04;100126.88;;;16.06;40.34
38616;BME280;24370;51.986;4.666;2024-02-26T04:39:29;100126.16;;;16.02;40.08
38616;BME280;24370;51.986;4.666;2024-02-26T04:41:55;100126.47;;;16.15;39.85
38616;BME280;24370;51.986;4.666;2024-02-26T04:44:20;100123.59;;;15.37;41.51
38616;BME280;24370;51.986;4.666;2024-02-26T04:46:45;100123.63;;;15.58;41.27
38616;BME280;24370;51.986;4.666;2024-02-26T04:49:11;100131.78;;;15.72;41.08
38616;BME280;24370;51.986;4.666;2024-02-26T04:51:36;100130.94;;;15.51;41.49
38616;BME280;24370;51.986;4.666;2024-02-26T04:54:02;100140.88;;;15.65;41.10
38616;BME280;24370;51.986;4.666;2024-02-26T04:56:27;100139.16;;;15.64;40.91
38616;BME280;24370;51.986;4.666;2024-02-26T04:58:53;100134.56;;;15.69;41.04
38616;BME280;24370;51.986;4.666;2024-02-26T05:01:18;100147.75;;;15.04;42.00
38616;BME280;24370;51.986;4.666;2024-02-26T05:03:44;100134.44;;;15.72;40.80
38616;BME280;24370;51.986;4.666;2024-02-26T05:06:09;100150.84;;;14.92;42.17
38616;BME280;24370;51.986;4.666;2024-02-26T05:08:35;100145.03;;;15.28;42.15
38616;BME280;24370;51.986;4.666;2024-02-26T05:11:04;100141.28;;;16.18;40.23
38616;BME280;24370;51.986;4.666;2024-02-26T05:13:29;100146.91;;;16.10;40.25
38616;BME280;24370;51.986;4.666;2024-02-26T05:15:55;100139.22;;;15.63;40.40
38616;BME280;24370;51.986;4.666;2024-02-26T05:18:21;100147.59;;;15.07;41.63
38616;BME280;24370;51.986;4.666;2024-02-26T05:20:47;100153.78;;;15.71;40.70
38616;BME280;24370;51.986;4.666;2024-02-26T05:23:12;100159.13;;;15.27;41.41
38616;BME280;24370;51.986;4.666;2024-02-26T05:25:38;100160.50;;;15.14;41.62
38616;BME280;24370;51.986;4.666;2024-02-26T05:28:04;100159.94;;;15.29;42.06
38616;BME280;24370;51.986;4.666;2024-02-26T05:30:29;100168.66;;;15.94;40.26
38616;BME280;24370;51.986;4.666;2024-02-26T05:32:54;100172.97;;;15.10;41.80
38616;BME280;24370;51.986;4.666;2024-02-26T05:35:20;100177.47;;;15.51;41.48
38616;BME280;24370;51.986;4.666;2024-02-26T05:37:45;100183.56;;;15.73;40.67
38616;BME280;24370;51.986;4.666;2024-02-26T05:40:11;100181.81;;;16.36;40.11
38616;BME280;24370;51.986;4.666;2024-02-26T05:42:37;100190.78;;;14.80;42.25
38616;BME280;24370;51.986;4.666;2024-02-26T05:45:02;100182.50;;;15.35;41.00
38616;BME280;24370;51.986;4.666;2024-02-26T05:47:32;100192.63;;;14.27;43.54
38616;BME280;24370;51.986;4.666;2024-02-26T05:49:57;100182.75;;;15.29;41.23
38616;BME280;24370;51.986;4.666;2024-02-26T05:52:24;100190.81;;;15.68;40.67
38616;BME280;24370;51.986;4.666;2024-02-26T05:54:50;100198.84;;;15.65;40.62
38616;BME280;24370;51.986;4.666;2024-02-26T05:57:15;100202.97;;;15.28;41.80
38616;BME280;24370;51.986;4.666;2024-02-26T05:59:40;100204.69;;;15.29;41.36
38616;BME280;24370;51.986;4.666;2024-02-26T06:02:06;100199.34;;;15.08;41.89
38616;BME280;24370;51.986;4.666;2024-02-26T06:04:31;100209.31;;;15.44;41.23
38616;BME280;24370;51.986;4.666;2024-02-26T06:06:56;100214.56;;;15.89;40.22
38616;BME280;24370;51.986;4.666;2024-02-26T06:09:23;100216.38;;;14.98;42.22
38616;BME280;24370;51.986;4.666;2024-02-26T06:11:48;100215.88;;;14.88;42.38
38616;BME280;24370;51.986;4.666;2024-02-26T06:14:13;100212.56;;;15.51;40.84
38616;BME280;24370;51.986;4.666;2024-02-26T06:16:43;100218.44;;;14.90;42.13
38616;BME280;24370;51.986;4.666;2024-02-26T06:19:08;100231.59;;;13.62;44.28
38616;BME280;24370;51.986;4.666;2024-02-26T06:21:34;100228.06;;;14.67;42.92
38616;BME280;24370;51.986;4.666;2024-02-26T06:24:00;100239.75;;;16.17;39.70
38616;BME280;24370;51.986;4.666;2024-02-26T06:26:26;100244.75;;;15.82;40.65
38616;BME280;24370;51.986;4.666;2024-02-26T06:28:54;100245.53;;;14.68;42.45
38616;BME280;24370;51.986;4.666;2024-02-26T06:31:20;100240.31;;;15.38;41.54
38616;BME280;24370;51.986;4.666;2024-02-26T06:33:46;100249.75;;;15.88;40.54
38616;BME280;24370;51.986;4.666;2024-02-26T06:36:12;100248.47;;;16.19;39.89
38616;BME280;24370;51.986;4.666;2024-02-26T06:38:37;100263.66;;;15.47;41.02
38616;BME280;24370;51.986;4.666;2024-02-26T06:41:02;100265.19;;;15.53;41.10
38616;BME280;24370;51.986;4.666;2024-02-26T06:43:31;100272.75;;;15.38;41.69
38616;BME280;24370;51.986;4.666;2024-02-26T06:45:57;100273.72;;;16.24;40.08
38616;BME280;24370;51.986;4.666;2024-02-26T06:48:24;100276.06;;;15.43;42.12
38616;BME280;24370;51.986;4.666;2024-02-26T06:50:49;100270.94;;;15.40;42.21
38616;BME280;24370;51.986;4.666;2024-02-26T06:53:14;100285.41;;;14.56;43.20
38616;BME280;24370;51.986;4.666;2024-02-26T06:55:40;100284.34;;;14.87;43.20
38616;BME280;24370;51.986;4.666;2024-02-26T06:58:06;100287.44;;;14.74;43.27
38616;BME280;24370;51.986;4.666;2024-02-26T07:00:31;100291.31;;;15.35;42.51
38616;BME280;24370;51.986;4.666;2024-02-26T07:02:56;100297.41;;;15.37;42.38
38616;BME280;24370;51.986;4.666;2024-02-26T07:05:22;100292.16;;;15.36;42.76
38616;BME280;24370;51.986;4.666;2024-02-26T07:07:47;100316.63;;;14.92;43.60
38616;BME280;24370;51.986;4.666;2024-02-26T07:10:12;100310.19;;;14.75;43.84
38616;BME280;24370;51.986;4.666;2024-02-26T07:12:38;100322.91;;;14.88;43.58
38616;BME280;24370;51.986;4.666;2024-02-26T07:15:04;100316.63;;;15.39;42.69
38616;BME280;24370;51.986;4.666;2024-02-26T07:17:32;100328.25;;;14.85;43.40
38616;BME280;24370;51.986;4.666;2024-02-26T07:19:59;100319.28;;;14.40;44.84
38616;BME280;24370;51.986;4.666;2024-02-26T07:22:24;100324.13;;;14.78;43.67
38616;BME280;24370;51.986;4.666;2024-02-26T07:24:49;100324.25;;;14.74;44.45
38616;BME280;24370;51.986;4.666;2024-02-26T07:27:15;100327.16;;;14.92;43.49
38616;BME280;24370;51.986;4.666;2024-02-26T07:29:42;100329.19;;;14.05;45.49
38616;BME280;24370;51.986;4.666;2024-02-26T07:32:08;100345.72;;;14.08;45.73
38616;BME280;24370;51.986;4.666;2024-02-26T07:34:33;100350.16;;;14.06;45.19
38616;BME280;24370;51.986;4.666;2024-02-26T07:36:59;100349.25;;;14.07;45.47
38616;BME280;24370;51.986;4.666;2024-02-26T07:39:24;100363.53;;;13.40;46.85
38616;BME280;24370;51.986;4.666;2024-02-26T07:41:50;100350.84;;;14.40;45.11
38616;BME280;24370;51.986;4.666;2024-02-26T07:44:20;100353.44;;;14.67;45.05
38616;BME280;24370;51.986;4.666;2024-02-26T07:46:45;100355.50;;;14.84;44.65
38616;BME280;24370;51.986;4.666;2024-02-26T07:49:10;100362.22;;;15.16;43.33
38616;BME280;24370;51.986;4.666;2024-02-26T07:51:36;100354.63;;;15.08;43.60
38616;BME280;24370;51.986;4.666;2024-02-26T07:54:01;100364.50;;;14.76;43.71
38616;BME280;24370;51.986;4.666;2024-02-26T07:56:27;100377.91;;;13.87;46.35
38616;BME280;24370;51.986;4.666;2024-02-26T07:58:52;100390.88;;;14.48;44.95
38616;BME280;24370;51.986;4.666;2024-02-26T08:01:17;100377.13;;;14.40;44.85
38616;BME280;24370;51.986;4.666;2024-02-26T08:03:43;100391.75;;;14.20;45.44
38616;BME280;24370;51.986;4.666;2024-02-26T08:06:08;100399.50;;;13.68;46.67
38616;BME280;24370;51.986;4.666;2024-02-26T08:08:34;100399.28;;;14.31;45.04
38616;BME280;24370;51.986;4.666;2024-02-26T08:10:59;100399.81;;;13.57;46.76
38616;BME280;24370;51.986;4.666;2024-02-26T08:13:25;100396.78;;;14.55;45.13
38616;BME280;24370;51.986;4.666;2024-02-26T08:15:51;100424.06;;;14.52;44.53
38616;BME280;24370;51.986;4.666;2024-02-26T08:18:17;100399.75;;;14.98;43.48
38616;BME280;24370;51.986;4.666;2024-02-26T08:20:43;100410.88;;;14.25;45.74
38616;BME280;24370;51.986;4.666;2024-02-26T08:23:08;100416.41;;;14.45;44.74
38616;BME280;24370;51.986;4.666;2024-02-26T08:25:33;100411.97;;;14.73;44.42
38616;BME280;24370;51.986;4.666;2024-02-26T08:28:01;100424.25;;;13.89;46.31
38616;BME280;24370;51.986;4.666;2024-02-26T08:30:26;100423.31;;;14.75;44.59
38616;BME280;24370;51.986;4.666;2024-02-26T08:32:52;100419.31;;;15.63;42.77
38616;BME280;24370;51.986;4.666;2024-02-26T08:35:17;100431.78;;;14.30;45.52
38616;BME280;24370;51.986;4.666;2024-02-26T08:37:47;100432.19;;;14.98;44.07
38616;BME280;24370;51.986;4.666;2024-02-26T08:40:13;100442.81;;;13.85;47.09
38616;BME280;24370;51.986;4.666;2024-02-26T08:42:38;100434.63;;;13.33;47.27
38616;BME280;24370;51.986;4.666;2024-02-26T08:45:04;100443.91;;;14.34;45.03
38616;BME280;24370;51.986;4.666;2024-02-26T08:47:30;100453.38;;;13.19;46.94
38616;BME280;24370;51.986;4.666;2024-02-26T08:49:55;100450.63;;;14.43;45.54
38616;BME280;24370;51.986;4.666;2024-02-26T08:52:21;100457.38;;;15.05;44.11
38616;BME280;24370;51.986;4.666;2024-02-26T08:54:50;100456.59;;;14.76;44.53
38616;BME280;24370;51.986;4.666;2024-02-26T08:57:15;100462.44;;;14.85;44.18
38616;BME280;24370;51.986;4.666;2024-02-26T08:59:41;100465.75;;;14.36;45.21
38616;BME280;24370;51.986;4.666;2024-02-26T09:02:07;100479.41;;;14.48;45.30
38616;BME280;24370;51.986;4.666;2024-02-26T09:04:34;100472.44;;;14.75;44.19
38616;BME280;24370;51.986;4.666;2024-02-26T09:07:00;100465.94;;;15.37;43.33
38616;BME280;24370;51.986;4.666;2024-02-26T09:09:26;100473.47;;;13.53;46.98
38616;BME280;24370;51.986;4.666;2024-02-26T09:11:51;100478.16;;;14.31;44.84
38616;BME280;24370;51.986;4.666;2024-02-26T09:14:18;100479.53;;;13.55;46.38
38616;BME280;24370;51.986;4.666;2024-02-26T09:16:43;100484.03;;;14.39;45.73
38616;BME280;24370;51.986;4.666;2024-02-26T09:19:08;100490.00;;;13.88;45.78
38616;BME280;24370;51.986;4.666;2024-02-26T09:21:34;100506.94;;;14.92;44.34
38616;BME280;24370;51.986;4.666;2024-02-26T09:23:59;100497.22;;;13.80;46.09
38616;BME280;24370;51.986;4.666;2024-02-26T09:26:25;100508.91;;;13.99;45.67
38616;BME280;24370;51.986;4.666;2024-02-26T09:28:50;100509.91;;;14.82;43.95
38616;BME280;24370;51.986;4.666;2024-02-26T09:31:17;100510.50;;;14.05;45.84
38616;BME280;24370;51.986;4.666;2024-02-26T09:33:43;100507.84;;;14.65;45.42
38616;BME280;24370;51.986;4.666;2024-02-26T09:36:08;100514.81;;;14.37;45.99
38616;BME280;24370;51.986;4.666;2024-02-26T09:38:36;100520.94;;;14.66;44.67
38616;BME280;24370;51.986;4.666;2024-02-26T09:41:04;100521.16;;;14.00;45.87
38616;BME280;24370;51.986;4.666;2024-02-26T09:43:34;100535.31;;;14.24;45.71
38616;BME280;24370;51.986;4.666;2024-02-26T09:46:00;100543.34;;;14.20;45.79
38616;BME280;24370;51.986;4.666;2024-02-26T09:48:26;100543.97;;;14.58;45.33
38616;BME280;24370;51.986;4.666;2024-02-26T09:50:56;100531.47;;;14.06;46.43
38616;BME280;24370;51.986;4.666;2024-02-26T09:53:22;100549.22;;;13.98;46.18
38616;BME280;24370;51.986;4.666;2024-02-26T09:55:47;100548.06;;;15.72;43.20
38616;BME280;24370;51.986;4.666;2024-02-26T09:58:13;100554.47;;;14.30;46.07
38616;BME280;24370;51.986;4.666;2024-02-26T10:00:46;100559.69;;;14.01;45.71
38616;BME280;24370;51.986;4.666;2024-02-26T10:03:15;100572.06;;;14.28;46.51
38616;BME280;24370;51.986;4.666;2024-02-26T10:05:41;100564.91;;;14.61;44.96
38616;BME280;24370;51.986;4.666;2024-02-26T10:08:08;100572.38;;;14.47;45.45
38616;BME280;24370;51.986;4.666;2024-02-26T10:10:34;100571.59;;;14.43;46.04
38616;BME280;24370;51.986;4.666;2024-02-26T10:13:01;100581.84;;;13.91;46.82
38616;BME280;24370;51.986;4.666;2024-02-26T10:15:32;100579.53;;;14.41;45.99
38616;BME280;24370;51.986;4.666;2024-02-26T10:17:57;100571.13;;;14.30;45.98
38616;BME280;24370;51.986;4.666;2024-02-26T10:20:23;100585.31;;;13.93;46.57
38616;BME280;24370;51.986;4.666;2024-02-26T10:22:49;100585.75;;;14.07;46.23
38616;BME280;24370;51.986;4.666;2024-02-26T10:25:14;100579.06;;;14.57;45.44
38616;BME280;24370;51.986;4.666;2024-02-26T10:27:41;100588.50;;;14.64;45.79
38616;BME280;24370;51.986;4.666;2024-02-26T10:32:46;100603.38;;;14.65;46.25
38616;BME280;24370;51.986;4.666;2024-02-26T10:35:13;100597.47;;;14.27;46.83
38616;BME280;24370;51.986;4.666;2024-02-26T10:37:40;100604.09;;;14.40;46.25
38616;BME280;24370;51.986;4.666;2024-02-26T10:40:06;100609.25;;;14.14;46.93
38616;BME280;24370;51.986;4.666;2024-02-26T10:42:34;100609.81;;;14.55;46.48
38616;BME280;24370;51.986;4.666;2024-02-26T10:44:59;100627.25;;;13.96;46.95
38616;BME280;24370;51.986;4.666;2024-02-26T10:47:27;100622.13;;;15.11;45.46
38616;BME280;24370;51.986;4.666;2024-02-26T10:49:52;100627.56;;;15.33;45.17
38616;BME280;24370;51.986;4.666;2024-02-26T10:52:19;100630.19;;;15.60;44.85
38616;BME280;24370;51.986;4.666;2024-02-26T10:54:47;100627.13;;;14.92;46.11
38616;BME280;24370;51.986;4.666;2024-02-26T10:57:13;100647.94;;;13.76;48.56
38616;BME280;24370;51.986;4.666;2024-02-26T10:59:42;100642.53;;;14.45;46.90
38616;BME280;24370;51.986;4.666;2024-02-26T11:02:08;100641.56;;;13.84;47.99
38616;BME280;24370;51.986;4.666;2024-02-26T11:04:35;100640.22;;;14.65;46.57
38616;BME280;24370;51.986;4.666;2024-02-26T11:07:00;100660.81;;;14.49;47.23
38616;BME280;24370;51.986;4.666;2024-02-26T11:09:27;100660.25;;;14.99;46.19
38616;BME280;24370;51.986;4.666;2024-02-26T11:11:53;100658.66;;;15.49;45.33
38616;BME280;24370;51.986;4.666;2024-02-26T11:14:20;100653.84;;;14.17;47.95
38616;BME280;24370;51.986;4.666;2024-02-26T11:16:47;100669.13;;;15.23;45.86
38616;BME280;24370;51.986;4.666;2024-02-26T11:19:15;100663.84;;;14.35;47.86
38616;BME280;24370;51.986;4.666;2024-02-26T11:21:41;100670.72;;;14.39;47.68
38616;BME280;24370;51.986;4.666;2024-02-26T11:24:15;100676.75;;;14.12;48.41
38616;BME280;24370;51.986;4.666;2024-02-26T11:26:51;100674.47;;;14.64;47.22
38616;BME280;24370;51.986;4.666;2024-02-26T11:29:25;100677.31;;;14.54;47.95
38616;BME280;24370;51.986;4.666;2024-02-26T11:31:52;100681.03;;;14.79;46.91
38616;BME280;24370;51.986;4.666;2024-02-26T11:34:18;100688.28;;;15.00;46.53
38616;BME280;24370;51.986;4.666;2024-02-26T11:36:44;100697.97;;;14.37;48.19
38616;BME280;24370;51.986;4.666;2024-02-26T11:39:11;100686.66;;;14.96;46.67
38616;BME280;24370;51.986;4.666;2024-02-26T11:41:38;100691.53;;;15.37;45.86
38616;BME280;24370;51.986;4.666;2024-02-26T11:44:04;100694.47;;;14.69;46.89
38616;BME280;24370;51.986;4.666;2024-02-26T11:46:33;100695.09;;;15.07;46.20
38616;BME280;24370;51.986;4.666;2024-02-26T11:51:56;100705.84;;;14.38;47.01
38616;BME280;24370;51.986;4.666;2024-02-26T11:57:03;100701.66;;;14.63;46.97
38616;BME280;24370;51.986;4.666;2024-02-26T11:59:39;100707.88;;;15.47;45.72
38616;BME280;24370;51.986;4.666;2024-02-26T12:02:07;100720.97;;;14.63;47.10
38616;BME280;24370;51.986;4.666;2024-02-26T12:04:32;100715.34;;;14.75;46.99
38616;BME280;24370;51.986;4.666;2024-02-26T12:07:01;100713.19;;;14.57;47.60
38616;BME280;24370;51.986;4.666;2024-02-26T12:09:40;100715.19;;;14.16;47.91
38616;BME280;24370;51.986;4.666;2024-02-26T12:12:10;100724.91;;;14.47;46.88
38616;BME280;24370;51.986;4.666;2024-02-26T12:14:55;100723.75;;;14.24;48.02
38616;BME280;24370;51.986;4.666;2024-02-26T12:17:23;100718.88;;;15.33;45.76
38616;BME280;24370;51.986;4.666;2024-02-26T12:19:49;100716.88;;;15.11;46.39
38616;BME280;24370;51.986;4.666;2024-02-26T12:22:14;100732.84;;;14.76;47.19
38616;BME280;24370;51.986;4.666;2024-02-26T12:24:40;100731.66;;;15.17;46.15
38616;BME280;24370;51.986;4.666;2024-02-26T12:27:06;100731.81;;;15.67;45.08
38616;BME280;24370;51.986;4.666;2024-02-26T12:29:31;100745.03;;;15.94;44.32
38616;BME280;24370;51.986;4.666;2024-02-26T12:31:57;100740.41;;;16.26;44.32
38616;BME280;24370;51.986;4.666;2024-02-26T12:34:23;100742.22;;;14.54;46.99
38616;BME280;24370;51.986;4.666;2024-02-26T12:36:48;100753.72;;;14.83;46.67
38616;BME280;24370;51.986;4.666;2024-02-26T12:39:14;100749.25;;;15.15;45.45
38616;BME280;24370;51.986;4.666;2024-02-26T12:41:40;100748.81;;;14.70;46.46
38616;BME280;24370;51.986;4.666;2024-02-26T12:44:05;100747.63;;;15.10;45.76
38616;BME280;24370;51.986;4.666;2024-02-26T12:46:32;100761.38;;;16.04;43.80
38616;BME280;24370;51.986;4.666;2024-02-26T12:48:58;100773.00;;;14.83;46.59
38616;BME280;24370;51.986;4.666;2024-02-26T12:51:25;100764.13;;;15.72;45.24
38616;BME280;24370;51.986;4.666;2024-02-26T12:53:51;100770.13;;;15.77;45.04
38616;BME280;24370;51.986;4.666;2024-02-26T12:56:18;100774.72;;;15.99;44.37